KMIC/MIC METAR and TAF weather

Enter ICAO airport designator
Station Type Date Time Source
KMIC METAR 2024/04/15 09:53 UTC NOAA

KMIC 150953Z AUTO 01005KT 10SM CLR 10/M01 A2997 RMK AO2 SLP149 T01001011


Station Type Date Time Source
KMIC Decoded METAR 2024/04/15 09:53 UTC NOAA

CRYSTAL AIRPORT, MN, United States (KMIC) 45-04N 093-21W 265M
Apr 15, 2024 - 05:53 AM EDT / 2024.04.15 0953 UTC
Wind: from the N (010 degrees) at 6 MPH (5 KT):0
Visibility: 10 mile(s):0
Sky conditions: clear
Temperature: 50.0 F (10.0 C)
Dew Point: 30.0 F (-1.1 C)
Relative Humidity: 45%
Pressure (altimeter): 29.97 in. Hg (1014 hPa)
ob: KMIC 150953Z AUTO 01005KT 10SM CLR 10/M01 A2997 RMK AO2 SLP149 T01001011
cycle: 10

Station Type Date Time Source
KMIC TAF UTC NOAA

Error!

Example: see airport list